Lago Vista, Lago Vista Tx Rusty Allen Airport (KRYW)

NameLago Vista Tx Rusty Allen Airport
CityLago Vista
CountryUnited States
ICAOKRYW
IATA
Altitude375 m
CoordinatesGoogle Map
Live Air TrafficLiveATC.net
METARKRYW 201555Z AUTO 15008G14KT 7SM OVC017 27/23 A2986 RMK AO2 T02710231
2019-05-20 15:55:00 Wind: Southeast (150°) 4.12 m/s - Visibility: 11265.38 m - Temperature: 27 °C - Dew point: 23 °C - Humidity: 78.8% - Pressure: 1011.18 hPa
Statistics

The table below shows the detailed information of all flights to/from Lago Vista, Lago Vista Tx Rusty Allen Airport (KRYW).